Puerto Banus, Marbella

>

This is an optional block (switch it off / on) in the settings - file ($SITE['banners'] = false;)

You can display ads, any other important text or photo’s using text / html or PHP code.

You can place one or more at the top and or bottom and it can all be different for content / size .



Meteosat more information blitzortung!


Radar lluvias  rain snow radar


Visita nuestra red de sitios de meteo:

Documentation for the template used

MeteoibericaRed estaciones Meteorologicas

MeteoclimaticRed estaciones Meteorologicas



Sin Advertencias climatologicas .En este momento tenemos Nivel Verde.    No hay Alarmas

Pagina Historial Weather Underground texto

Diario Resumen January 1, 2018 Unidades:  Métrico    impérial   Tanto
« Anterior Dia
Siguiente Dia »
Diario Semana Mensual Anual Personalizada
  Maxima: Minima: Media:
Temperatura: 18.0 °C 11.4 °C 14.6 °C
Punto de rocío: 11.5 °C -2.2 °C 6.2 °C
Humedad: 75 % 32 % 58 %
Velocidad del Viento: 18.5 km/h 0.0 km/h 6.9 km/h
Ráfagas de viento: 18.5 km/h - -
Viento:- - WSW
Pression baro: 1034.1 hPa 1030.4 hPa -
Précipitaciones: 0.0 mm    
Historical Graphs
 
 
Datos de tabla para January 1, 2018
Tiempo Temperatura Punto de rocío Pression baro Viento Velocidad del Viento Ráfagas de viento Humedad Las precipitaciones Rate ( Hora )
00:02 17.6 °C 9.7 °C 1030.7 hPa NNW 13.0 km/h 13.0 km/h 60 % 0.0 mm
00:07 17.9 °C 9.5 °C 1030.7 hPa North 11.3 km/h 11.3 km/h 58 % 0.0 mm
00:08 17.9 °C 9.5 °C 1030.7 hPa NNW 14.8 km/h 14.8 km/h 58 % 0.0 mm
00:13 17.9 °C 9.3 °C 1030.7 hPa NNW 9.3 km/h 9.3 km/h 57 % 0.0 mm
00:14 18.0 °C 9.3 °C 1030.7 hPa NW 9.3 km/h 9.3 km/h 57 % 0.0 mm
00:18 18.0 °C 9.3 °C 1030.4 hPa NW 9.3 km/h 9.3 km/h 57 % 0.0 mm
00:23 17.9 °C 9.3 °C 1030.7 hPa NW 11.1 km/h 11.1 km/h 57 % 0.0 mm
00:24 17.9 °C 9.3 °C 1030.7 hPa NW 9.3 km/h 9.3 km/h 57 % 0.0 mm
00:25 17.9 °C 9.2 °C 1030.7 hPa NW 9.7 km/h 9.7 km/h 57 % 0.0 mm
00:29 17.8 °C 9.2 °C 1030.7 hPa NNW 13.0 km/h 13.0 km/h 57 % 0.0 mm
00:34 17.6 °C 9.7 °C 1030.7 hPa NE 9.3 km/h 9.3 km/h 60 % 0.0 mm
00:35 17.5 °C 9.7 °C 1030.7 hPa NE 9.7 km/h 9.7 km/h 60 % 0.0 mm
00:40 17.3 °C 9.2 °C 1030.7 hPa NNE 1.9 km/h   59 % 0.0 mm
00:41 17.3 °C 9.2 °C 1030.7 hPa Calm     59 % 0.0 mm
00:42 17.3 °C 9.5 °C 1030.7 hPa Calm     60 % 0.0 mm
00:47 17.3 °C 10.4 °C 1030.7 hPa ENE 3.7 km/h 3.7 km/h 64 % 0.0 mm
00:48 17.2 °C 10.3 °C 1030.7 hPa East 3.7 km/h 3.7 km/h 64 % 0.0 mm
00:52 17.1 °C 10.5 °C 1030.7 hPa ENE 3.2 km/h 3.2 km/h 65 % 0.0 mm
00:55 16.9 °C 10.8 °C 1031.0 hPa ENE 8.0 km/h 8.0 km/h 67 % 0.0 mm
01:00 16.8 °C 10.8 °C 1030.7 hPa ENE 5.6 km/h 5.6 km/h 68 % 0.0 mm
01:01 16.7 °C 10.8 °C 1030.7 hPa ENE 5.6 km/h 5.6 km/h 68 % 0.0 mm
01:06 16.5 °C 10.3 °C 1031.0 hPa Calm     67 % 0.0 mm
01:08 16.5 °C 10.6 °C 1031.0 hPa Calm     68 % 0.0 mm
01:10 16.4 °C 10.5 °C 1031.0 hPa Calm     68 % 0.0 mm
01:14 16.3 °C 10.4 °C 1031.0 hPa Calm     68 % 0.0 mm
01:19 16.3 °C 10.3 °C 1031.0 hPa NE 5.6 km/h 5.6 km/h 68 % 0.0 mm
01:23 16.2 °C 10.3 °C 1031.0 hPa NNW 5.6 km/h 5.6 km/h 68 % 0.0 mm
01:28 16.1 °C 10.2 °C 1031.0 hPa Calm     68 % 0.0 mm
01:29 16.1 °C 10.2 °C 1031.0 hPa NW 3.2 km/h 3.2 km/h 68 % 0.0 mm
01:34 16.1 °C 10.2 °C 1031.0 hPa Calm     68 % 0.0 mm
01:35 16.1 °C 10.2 °C 1031.0 hPa Calm     68 % 0.0 mm
01:40 16.1 °C 10.4 °C 1031.0 hPa Calm     69 % 0.0 mm
01:41 16.1 °C 10.4 °C 1031.0 hPa Calm     69 % 0.0 mm
01:46 16.1 °C 10.4 °C 1031.0 hPa Calm     69 % 0.0 mm
01:47 16.1 °C 10.6 °C 1031.0 hPa NW 3.2 km/h 3.2 km/h 70 % 0.0 mm
01:52 16.1 °C 10.4 °C 1031.0 hPa Calm     69 % 0.0 mm
01:56 16.1 °C 10.4 °C 1031.0 hPa NW 6.4 km/h 6.4 km/h 69 % 0.0 mm
01:57 15.9 °C 10.1 °C 1031.0 hPa North 8.0 km/h 8.0 km/h 68 % 0.0 mm
02:01 15.4 °C 9.3 °C 1031.0 hPa North 9.7 km/h 9.7 km/h 67 % 0.0 mm
02:04 15.1 °C 9.2 °C 1031.0 hPa North 8.0 km/h 8.0 km/h 68 % 0.0 mm
02:09 14.8 °C 8.9 °C 1031.0 hPa North 9.7 km/h 9.7 km/h 68 % 0.0 mm
02:14 14.3 °C 8.7 °C 1031.0 hPa North 9.3 km/h 9.3 km/h 69 % 0.0 mm
02:16 14.2 °C 8.6 °C 1031.0 hPa North 9.7 km/h 9.7 km/h 69 % 0.0 mm
02:19 14.1 °C 8.7 °C 1031.0 hPa NNW 9.3 km/h 9.3 km/h 70 % 0.0 mm
02:22 14.1 °C 8.7 °C 1031.0 hPa NNW 9.3 km/h 9.3 km/h 70 % 0.0 mm
02:24 14.1 °C 8.7 °C 1031.0 hPa NNW 7.4 km/h 7.4 km/h 70 % 0.0 mm
02:29 14.1 °C 8.7 °C 1031.0 hPa NNW 6.4 km/h 6.4 km/h 70 % 0.0 mm
02:30 14.0 °C 8.4 °C 1031.0 hPa North 8.0 km/h 8.0 km/h 69 % 0.0 mm
02:35 13.8 °C 8.2 °C 1031.0 hPa NNW 7.4 km/h 7.4 km/h 69 % 0.0 mm
02:36 13.8 °C 8.2 °C 1031.0 hPa NNW 7.4 km/h 7.4 km/h 69 % 0.0 mm
02:39 13.7 °C 8.1 °C 1031.0 hPa NNW 5.6 km/h 5.6 km/h 69 % 0.0 mm
02:41 13.8 °C 8.2 °C 1031.0 hPa NNW 3.7 km/h 3.7 km/h 69 % 0.0 mm
02:46 13.8 °C 7.8 °C 1031.0 hPa North 6.4 km/h 6.4 km/h 67 % 0.0 mm
02:47 13.8 °C 7.8 °C 1031.0 hPa North 7.4 km/h 7.4 km/h 67 % 0.0 mm
02:48 13.8 °C 7.8 °C 1031.0 hPa North 5.6 km/h 5.6 km/h 67 % 0.0 mm
02:53 13.9 °C 7.6 °C 1031.0 hPa NW 5.6 km/h 5.6 km/h 66 % 0.0 mm
02:58 14.0 °C 7.5 °C 1030.7 hPa North 7.4 km/h 7.4 km/h 65 % 0.0 mm
02:59 14.1 °C 7.3 °C 1031.0 hPa North 7.4 km/h 7.4 km/h 64 % 0.0 mm
03:03 14.1 °C 7.3 °C 1031.0 hPa NNW 5.6 km/h 5.6 km/h 64 % 0.0 mm
03:04 14.1 °C 7.3 °C 1031.0 hPa NNW 5.6 km/h 5.6 km/h 64 % 0.0 mm
03:05 14.0 °C 7.1 °C 1031.0 hPa NNW 5.6 km/h 5.6 km/h 63 % 0.0 mm
03:09 14.0 °C 7.1 °C 1031.0 hPa Calm     63 % 0.0 mm
03:10 14.0 °C 7.1 °C 1031.0 hPa NNW 1.6 km/h 1.6 km/h 63 % 0.0 mm
03:14 13.9 °C 6.8 °C 1031.0 hPa NNW 5.6 km/h 5.6 km/h 62 % 0.0 mm
03:17 13.9 °C 6.7 °C 1031.0 hPa Calm     62 % 0.0 mm
03:19 13.9 °C 6.7 °C 1031.0 hPa Calm     62 % 0.0 mm
03:24 13.7 °C 6.6 °C 1031.0 hPa North 8.0 km/h 8.0 km/h 62 % 0.0 mm
03:26 13.7 °C 6.6 °C 1031.0 hPa North 7.4 km/h 7.4 km/h 62 % 0.0 mm
03:31 13.7 °C 6.1 °C 1031.0 hPa North 7.4 km/h 7.4 km/h 60 % 0.0 mm
03:32 13.7 °C 6.1 °C 1031.4 hPa North 8.0 km/h 8.0 km/h 60 % 0.0 mm
03:35 13.7 °C 5.8 °C 1031.4 hPa NNW 6.4 km/h 6.4 km/h 59 % 0.0 mm
03:38 13.7 °C 5.6 °C 1031.4 hPa NNW 5.6 km/h 5.6 km/h 58 % 0.0 mm
03:41 13.7 °C 5.3 °C 1031.0 hPa NNW 5.6 km/h 5.6 km/h 57 % 0.0 mm
03:43 13.7 °C 4.8 °C 1031.0 hPa NNW 5.6 km/h 5.6 km/h 55 % 0.0 mm
03:47 13.7 °C 4.8 °C 1031.0 hPa Calm     55 % 0.0 mm
03:49 13.8 °C 5.2 °C 1031.4 hPa Calm     56 % 0.0 mm
03:54 13.8 °C 5.2 °C 1031.4 hPa Calm     56 % 0.0 mm
03:55 13.8 °C 4.9 °C 1031.0 hPa NNW 6.4 km/h 6.4 km/h 55 % 0.0 mm
03:56 13.9 °C 5.8 °C 1031.0 hPa NW 7.4 km/h 7.4 km/h 58 % 0.0 mm
04:00 14.0 °C 4.3 °C 1031.0 hPa North 9.3 km/h 9.3 km/h 52 % 0.0 mm
04:05 14.3 °C 3.8 °C 1031.0 hPa NNW 7.4 km/h 7.4 km/h 49 % 0.0 mm
04:07 14.4 °C 3.5 °C 1031.4 hPa NNW 7.4 km/h 7.4 km/h 48 % 0.0 mm
04:13 14.6 °C 4.2 °C 1031.4 hPa NW 4.8 km/h 4.8 km/h 50 % 0.0 mm
04:14 14.6 °C 4.2 °C 1031.4 hPa NW 5.6 km/h 5.6 km/h 50 % 0.0 mm
04:19 14.5 °C 3.6 °C 1031.4 hPa North 7.4 km/h 7.4 km/h 48 % 0.0 mm
04:20 14.5 °C 3.6 °C 1031.4 hPa NNW 7.4 km/h 7.4 km/h 48 % 0.0 mm
04:23 14.4 °C 3.8 °C 1031.4 hPa WNW 5.6 km/h 5.6 km/h 49 % 0.0 mm
04:26 14.4 °C 3.5 °C 1031.4 hPa WNW 5.6 km/h 5.6 km/h 48 % 0.0 mm
04:30 14.3 °C 3.8 °C 1031.4 hPa WNW 3.7 km/h 3.7 km/h 49 % 0.0 mm
04:33 14.3 °C 3.7 °C 1031.4 hPa WNW 3.7 km/h 3.7 km/h 49 % 0.0 mm
04:38 14.1 °C 3.8 °C 1031.0 hPa NW 3.7 km/h 3.7 km/h 50 % 0.0 mm
04:43 13.9 °C 3.9 °C 1031.0 hPa WNW 5.6 km/h 5.6 km/h 51 % 0.0 mm
04:44 13.9 °C 3.9 °C 1031.0 hPa WNW 5.6 km/h 5.6 km/h 51 % 0.0 mm
04:49 13.7 °C 4.1 °C 1031.0 hPa NW 5.6 km/h 5.6 km/h 52 % 0.0 mm
04:54 13.6 °C 4.2 °C 1031.0 hPa West 5.6 km/h 5.6 km/h 53 % 0.0 mm
04:59 13.3 °C 3.7 °C 1031.0 hPa NW 5.6 km/h 5.6 km/h 52 % 0.0 mm
05:00 13.3 °C 3.4 °C 1031.0 hPa North 9.3 km/h 9.3 km/h 51 % 0.0 mm
05:05 13.3 °C 3.7 °C 1031.0 hPa WNW 8.0 km/h 8.0 km/h 52 % 0.0 mm
05:06 13.3 °C 3.9 °C 1031.0 hPa WNW 7.4 km/h 7.4 km/h 53 % 0.0 mm
05:10 13.3 °C 3.6 °C 1031.0 hPa NNW 8.0 km/h 8.0 km/h 52 % 0.0 mm
05:15 13.3 °C 2.8 °C 1031.0 hPa NNW 11.1 km/h 11.1 km/h 49 % 0.0 mm
05:16 13.3 °C 2.8 °C 1031.0 hPa North 11.1 km/h 11.1 km/h 49 % 0.0 mm
05:19 13.4 °C 2.7 °C 1031.0 hPa NNE 14.8 km/h 14.8 km/h 48 % 0.0 mm
05:21 13.6 °C 2.7 °C 1031.0 hPa North 16.7 km/h 16.7 km/h 48 % 0.0 mm
05:26 13.6 °C 2.7 °C 1031.0 hPa North 9.3 km/h 9.3 km/h 48 % 0.0 mm
05:29 13.5 °C 2.7 °C 1030.7 hPa North 12.9 km/h 12.9 km/h 48 % 0.0 mm
05:32 13.4 °C 2.7 °C 1030.7 hPa NNW 13.0 km/h 13.0 km/h 48 % 0.0 mm
05:34 13.4 °C 2.7 °C 1030.7 hPa NNW 16.7 km/h 16.7 km/h 48 % 0.0 mm
05:37 13.4 °C 2.7 °C 1030.7 hPa North 14.5 km/h 14.5 km/h 48 % 0.0 mm
05:42 13.3 °C 2.6 °C 1030.7 hPa North 13.0 km/h 13.0 km/h 48 % 0.0 mm
05:43 13.3 °C 2.6 °C 1030.7 hPa NNW 18.5 km/h 18.5 km/h 48 % 0.0 mm
05:44 13.3 °C 2.6 °C 1030.7 hPa North 13.0 km/h 13.0 km/h 48 % 0.0 mm
05:49 13.2 °C 2.4 °C 1030.7 hPa NNE 16.7 km/h 16.7 km/h 48 % 0.0 mm
05:54 13.2 °C 2.4 °C 1030.7 hPa NNE 18.5 km/h 18.5 km/h 48 % 0.0 mm
05:57 13.2 °C 2.4 °C 1030.7 hPa North 16.7 km/h 16.7 km/h 48 % 0.0 mm
06:02 13.1 °C 2.6 °C 1030.7 hPa North 16.7 km/h 16.7 km/h 49 % 0.0 mm
06:07 13.0 °C 2.5 °C 1030.7 hPa NNE 18.5 km/h 18.5 km/h 49 % 0.0 mm
06:08 13.0 °C 2.2 °C 1030.7 hPa North 18.5 km/h 18.5 km/h 48 % 0.0 mm
06:13 12.9 °C 2.5 °C 1030.7 hPa North 16.7 km/h 16.7 km/h 49 % 0.0 mm
06:15 12.9 °C 2.5 °C 1030.7 hPa North 13.0 km/h 13.0 km/h 49 % 0.0 mm
06:20 12.8 °C 2.3 °C 1031.0 hPa North 18.5 km/h 18.5 km/h 49 % 0.0 mm
06:25 12.7 °C 2.3 °C 1031.0 hPa North 13.0 km/h 13.0 km/h 49 % 0.0 mm
06:26 12.7 °C 2.3 °C 1031.0 hPa NNE 11.3 km/h 11.3 km/h 49 % 0.0 mm
06:31 12.7 °C 2.2 °C 1031.0 hPa North 8.0 km/h 8.0 km/h 49 % 0.0 mm
06:32 12.6 °C 2.2 °C 1031.0 hPa North 9.7 km/h 9.7 km/h 49 % 0.0 mm
06:37 12.6 °C 2.4 °C 1031.0 hPa North 13.0 km/h 13.0 km/h 50 % 0.0 mm
06:38 12.6 °C 2.1 °C 1031.0 hPa North 12.9 km/h 12.9 km/h 49 % 0.0 mm
06:42 12.6 °C 2.1 °C 1031.0 hPa NW 11.1 km/h 11.1 km/h 49 % 0.0 mm
06:46 12.6 °C 2.4 °C 1031.0 hPa NNW 7.4 km/h 7.4 km/h 50 % 0.0 mm
06:51 12.5 °C 2.6 °C 1031.4 hPa NNW 5.6 km/h 5.6 km/h 51 % 0.0 mm
06:57 12.4 °C 3.9 °C 1031.4 hPa NNW 5.6 km/h 5.6 km/h 56 % 0.0 mm
06:58 12.4 °C 3.8 °C 1031.4 hPa NNW 5.6 km/h 5.6 km/h 56 % 0.0 mm
07:03 12.1 °C 3.1 °C 1031.4 hPa NNW 5.6 km/h 5.6 km/h 54 % 0.0 mm
07:05 12.1 °C 3.0 °C 1031.4 hPa NNW 3.2 km/h 3.2 km/h 54 % 0.0 mm
07:10 12.0 °C 2.4 °C 1031.4 hPa NNW 5.6 km/h 5.6 km/h 52 % 0.0 mm
07:11 12.0 °C 2.7 °C 1031.4 hPa NNW 5.6 km/h 5.6 km/h 53 % 0.0 mm
07:16 12.0 °C 3.2 °C 1031.4 hPa NNW 3.7 km/h 3.7 km/h 55 % 0.0 mm
07:21 12.0 °C 2.9 °C 1031.0 hPa NNW 4.8 km/h 4.8 km/h 54 % 0.0 mm
07:26 11.9 °C 2.6 °C 1031.0 hPa NNW 5.6 km/h 5.6 km/h 53 % 0.0 mm
07:27 11.9 °C 2.6 °C 1031.0 hPa NNW 5.6 km/h 5.6 km/h 53 % 0.0 mm
07:32 11.9 °C 2.6 °C 1031.4 hPa North 6.4 km/h 6.6 km/h 53 % 0.0 mm
07:34 11.8 °C 2.6 °C 1031.4 hPa North 9.3 km/h 9.3 km/h 53 % 0.0 mm
07:36 11.8 °C 2.5 °C 1031.4 hPa North 9.3 km/h 9.3 km/h 53 % 0.0 mm
07:39 11.7 °C 2.4 °C 1031.4 hPa North 7.4 km/h 7.4 km/h 53 % 0.0 mm
07:44 11.6 °C 2.3 °C 1031.7 hPa North 9.3 km/h 9.3 km/h 53 % 0.0 mm
07:45 11.5 °C 2.2 °C 1031.7 hPa North 7.4 km/h 7.4 km/h 53 % 0.0 mm
07:48 11.4 °C 2.2 °C 1031.7 hPa NNW 7.4 km/h 7.4 km/h 53 % 0.0 mm
07:52 11.5 °C 2.2 °C 1031.7 hPa NNW 7.4 km/h 7.4 km/h 53 % 0.0 mm
07:55 11.6 °C 2.6 °C 1031.7 hPa NNE 8.0 km/h 8.0 km/h 54 % 0.0 mm
08:00 11.6 °C 2.3 °C 1031.7 hPa North 5.6 km/h 5.6 km/h 53 % 0.0 mm
08:05 11.5 °C 2.2 °C 1031.7 hPa North 8.0 km/h 8.0 km/h 53 % 0.0 mm
08:08 11.4 °C 2.2 °C 1031.7 hPa NNW 8.0 km/h 8.0 km/h 53 % 0.0 mm
08:10 11.5 °C 2.2 °C 1031.7 hPa NNW 7.4 km/h 7.4 km/h 53 % 0.0 mm
08:15 11.5 °C 2.2 °C 1031.7 hPa North 5.6 km/h 5.6 km/h 53 % 0.0 mm
08:20 11.6 °C 2.1 °C 1031.7 hPa North 6.4 km/h 6.4 km/h 52 % 0.0 mm
08:23 11.7 °C 2.1 °C 1031.7 hPa NNW 5.6 km/h 5.6 km/h 52 % 0.0 mm
08:28 11.8 °C 2.8 °C 1031.7 hPa NNW 5.6 km/h 5.6 km/h 54 % 0.0 mm
08:32 11.8 °C 3.3 °C 1032.1 hPa West 5.6 km/h 5.6 km/h 56 % 0.0 mm
08:34 11.8 °C 3.6 °C 1032.1 hPa West 5.6 km/h 5.6 km/h 57 % 0.0 mm
08:39 11.8 °C 3.8 °C 1032.1 hPa West 5.6 km/h 5.6 km/h 58 % 0.0 mm
08:40 11.8 °C 3.8 °C 1032.1 hPa West 5.6 km/h 5.6 km/h 58 % 0.0 mm
08:45 11.7 °C 3.7 °C 1032.1 hPa WNW 5.6 km/h 5.6 km/h 58 % 0.0 mm
08:50 11.7 °C 3.7 °C 1032.1 hPa NNW 5.6 km/h 5.6 km/h 58 % 0.0 mm
08:51 11.7 °C 3.7 °C 1032.1 hPa North 5.6 km/h 5.6 km/h 58 % 0.0 mm
08:56 11.7 °C 3.5 °C 1032.1 hPa NNW 9.7 km/h 9.7 km/h 57 % 0.0 mm
08:57 11.7 °C 3.5 °C 1032.1 hPa NNW 9.7 km/h 9.7 km/h 57 % 0.0 mm
09:02 12.3 °C 2.9 °C 1032.4 hPa NNW 9.3 km/h 9.3 km/h 53 % 0.0 mm
09:07 12.7 °C 2.8 °C 1032.1 hPa NNW 14.8 km/h 14.8 km/h 51 % 0.0 mm
09:12 12.9 °C 2.8 °C 1032.4 hPa WNW 11.1 km/h 11.1 km/h 50 % 0.0 mm
09:15 13.0 °C 2.8 °C 1032.4 hPa North 7.4 km/h 7.4 km/h 50 % 0.0 mm
09:20 13.0 °C 2.8 °C 1032.4 hPa North 7.4 km/h 7.4 km/h 50 % 0.0 mm
09:25 12.8 °C 2.7 °C 1032.4 hPa NNW 5.6 km/h 5.6 km/h 50 % 0.0 mm
09:26 12.8 °C 2.4 °C 1032.4 hPa North 11.1 km/h 11.1 km/h 49 % 0.0 mm
09:31 12.9 °C 2.1 °C 1032.7 hPa NNW 7.4 km/h 7.4 km/h 48 % 0.0 mm
09:36 13.1 °C 2.3 °C 1032.7 hPa NNE 11.1 km/h 11.1 km/h 48 % 0.0 mm
09:41 13.1 °C 2.0 °C 1032.4 hPa NNE 5.6 km/h 5.6 km/h 47 % 0.0 mm
09:46 13.2 °C 2.1 °C 1032.7 hPa NNE 5.6 km/h 5.6 km/h 47 % 0.0 mm
09:48 13.2 °C 2.2 °C 1032.7 hPa NNE 5.6 km/h 5.6 km/h 47 % 0.0 mm
09:52 13.3 °C 2.2 °C 1033.1 hPa North 8.0 km/h 8.0 km/h 47 % 0.0 mm
09:57 13.4 °C 2.3 °C 1033.1 hPa North 6.4 km/h 6.4 km/h 47 % 0.0 mm
10:02 13.6 °C 2.4 °C 1033.1 hPa North 5.6 km/h 5.6 km/h 47 % 0.0 mm
10:03 13.6 °C 2.7 °C 1033.1 hPa North 5.6 km/h 5.6 km/h 48 % 0.0 mm
10:08 13.8 °C 2.9 °C 1033.1 hPa North 5.6 km/h 5.6 km/h 48 % 0.0 mm
10:12 14.1 °C 3.2 °C 1033.1 hPa North 5.6 km/h 5.6 km/h 48 % 0.0 mm
10:14 14.1 °C 3.3 °C 1033.1 hPa North 5.6 km/h 5.6 km/h 48 % 0.0 mm
10:19 14.3 °C 3.8 °C 1033.1 hPa North 3.7 km/h 3.7 km/h 49 % 0.0 mm
10:20 14.4 °C 3.8 °C 1033.1 hPa North 3.7 km/h 3.7 km/h 49 % 0.0 mm
10:21 14.4 °C 3.8 °C 1033.1 hPa North 5.6 km/h 5.6 km/h 49 % 0.0 mm
10:26 14.6 °C 3.7 °C 1033.1 hPa North 3.7 km/h 3.7 km/h 48 % 0.0 mm
10:31 14.7 °C 3.5 °C 1033.4 hPa North 3.7 km/h 3.7 km/h 47 % 0.0 mm
10:33 14.8 °C 3.3 °C 1033.4 hPa North 3.7 km/h 3.7 km/h 46 % 0.0 mm
10:38 14.9 °C 3.1 °C 1033.4 hPa North 3.7 km/h 3.7 km/h 45 % 0.0 mm
10:40 15.0 °C 3.4 °C 1033.4 hPa North 5.6 km/h 5.6 km/h 46 % 0.0 mm
10:43 15.1 °C 3.6 °C 1033.7 hPa North 7.4 km/h 7.4 km/h 46 % 0.0 mm
10:45 15.2 °C 3.7 °C 1033.7 hPa North 7.4 km/h 7.4 km/h 46 % 0.0 mm
10:50 15.4 °C 3.8 °C 1033.7 hPa NNE 5.6 km/h 5.6 km/h 46 % 0.0 mm
10:51 15.4 °C 3.9 °C 1033.7 hPa NNE 3.7 km/h 3.7 km/h 46 % 0.0 mm
10:56 15.6 °C 4.3 °C 1033.7 hPa Calm     47 % 0.0 mm
11:01 15.8 °C 4.2 °C 1033.7 hPa Calm     46 % 0.0 mm
11:05 15.8 °C 4.2 °C 1033.7 hPa Calm     46 % 0.0 mm
11:08 15.8 °C 4.8 °C 1033.7 hPa NE 5.6 km/h 5.6 km/h 48 % 0.0 mm
11:13 15.7 °C 4.7 °C 1033.7 hPa Calm     48 % 0.0 mm
11:17 15.8 °C 5.4 °C 1033.7 hPa Calm     50 % 0.0 mm
11:19 15.9 °C 5.2 °C 1033.7 hPa Calm     49 % 0.0 mm
11:22 16.0 °C 6.2 °C 1033.7 hPa NE 4.8 km/h 4.8 km/h 52 % 0.0 mm
11:24 16.1 °C 7.0 °C 1034.1 hPa NE 5.6 km/h 5.6 km/h 55 % 0.0 mm
11:29 16.2 °C 6.6 °C 1033.7 hPa Calm     53 % 0.0 mm
11:32 16.3 °C 6.4 °C 1033.7 hPa Calm     52 % 0.0 mm
11:37 16.5 °C 7.2 °C 1033.7 hPa ENE 5.6 km/h 5.6 km/h 54 % 0.0 mm
11:42 16.6 °C 7.7 °C 1033.7 hPa ENE 5.6 km/h 5.6 km/h 56 % 0.0 mm
11:43 16.6 °C 8.0 °C 1033.7 hPa ENE 5.6 km/h 5.6 km/h 57 % 0.0 mm
11:48 16.5 °C 7.7 °C 1033.7 hPa ENE 1.9 km/h   56 % 0.0 mm
11:51 16.6 °C 8.3 °C 1033.7 hPa East 5.6 km/h 5.6 km/h 58 % 0.0 mm
11:55 16.5 °C 8.7 °C 1033.7 hPa South 6.4 km/h 6.4 km/h 60 % 0.0 mm
11:56 16.5 °C 8.9 °C 1033.7 hPa South 5.6 km/h 5.8 km/h 61 % 0.0 mm
12:01 16.4 °C 9.1 °C 1033.7 hPa South 3.7 km/h 3.7 km/h 62 % 0.0 mm
12:06 16.3 °C 8.6 °C 1033.7 hPa South 3.7 km/h 3.7 km/h 60 % 0.0 mm
12:09 16.3 °C 8.3 °C 1033.7 hPa South 3.7 km/h 3.7 km/h 59 % 0.0 mm
12:12 16.4 °C 8.9 °C 1033.7 hPa South 3.2 km/h 3.2 km/h 61 % 0.0 mm
12:14 16.5 °C 8.7 °C 1033.7 hPa South 3.7 km/h 3.7 km/h 60 % 0.0 mm
12:19 16.6 °C 9.6 °C 1033.7 hPa South 3.7 km/h 3.7 km/h 63 % 0.0 mm
12:21 16.7 °C 9.8 °C 1033.7 hPa South 3.7 km/h 3.7 km/h 64 % 0.0 mm
12:25 16.7 °C 9.9 °C 1033.4 hPa South 3.7 km/h 3.7 km/h 64 % 0.0 mm
12:30 16.7 °C 9.9 °C 1033.4 hPa South 3.7 km/h 3.7 km/h 64 % 0.0 mm
12:31 16.7 °C 9.8 °C 1033.4 hPa South 4.8 km/h 4.8 km/h 64 % 0.0 mm
12:36 16.6 °C 9.1 °C 1033.4 hPa SSW 6.4 km/h 6.4 km/h 61 % 0.0 mm
12:37 16.6 °C 9.0 °C 1033.4 hPa SSW 6.4 km/h 6.4 km/h 61 % 0.0 mm
12:43 16.5 °C 9.7 °C 1033.4 hPa SW 6.4 km/h 6.4 km/h 64 % 0.0 mm
12:48 16.3 °C 9.7 °C 1033.1 hPa WSW 5.6 km/h 5.6 km/h 65 % 0.0 mm
12:49 16.3 °C 9.7 °C 1033.1 hPa WSW 5.6 km/h 5.6 km/h 65 % 0.0 mm
12:54 16.3 °C 9.9 °C 1033.4 hPa SW 9.3 km/h 9.3 km/h 66 % 0.0 mm
12:58 16.3 °C 10.1 °C 1033.4 hPa SW 7.4 km/h 7.7 km/h 67 % 0.0 mm
13:01 16.2 °C 10.5 °C 1033.4 hPa SW 7.4 km/h 7.4 km/h 69 % 0.0 mm
13:06 16.1 °C 10.2 °C 1033.1 hPa SW 9.3 km/h 9.3 km/h 68 % 0.0 mm
13:09 16.0 °C 10.3 °C 1033.1 hPa SW 9.3 km/h 9.3 km/h 69 % 0.0 mm
13:11 15.9 °C 10.3 °C 1033.1 hPa WSW 11.3 km/h 11.3 km/h 69 % 0.0 mm
13:14 15.9 °C 10.5 °C 1033.1 hPa SW 13.0 km/h 13.0 km/h 70 % 0.0 mm
13:19 15.9 °C 10.7 °C 1032.7 hPa WSW 11.3 km/h 11.3 km/h 71 % 0.0 mm
13:20 15.9 °C 10.7 °C 1032.7 hPa WSW 11.3 km/h 11.3 km/h 71 % 0.0 mm
13:25 15.9 °C 11.1 °C 1032.7 hPa WSW 9.7 km/h 9.7 km/h 73 % 0.0 mm
13:27 15.9 °C 11.1 °C 1032.7 hPa WSW 9.7 km/h 9.7 km/h 73 % 0.0 mm
13:31 15.8 °C 11.2 °C 1032.7 hPa WSW 11.1 km/h 11.1 km/h 74 % 0.0 mm
13:36 15.8 °C 11.2 °C 1032.7 hPa SW 9.7 km/h 9.7 km/h 74 % 0.0 mm
13:41 15.7 °C 11.3 °C 1032.7 hPa WSW 13.0 km/h 13.0 km/h 75 % 0.0 mm
13:46 15.6 °C 11.2 °C 1032.7 hPa WSW 9.7 km/h 9.7 km/h 75 % 0.0 mm
13:51 15.4 °C 10.8 °C 1032.4 hPa WSW 7.4 km/h 7.4 km/h 74 % 0.0 mm
13:52 15.4 °C 10.8 °C 1032.4 hPa WSW 9.7 km/h 9.7 km/h 74 % 0.0 mm
13:55 15.3 °C 10.4 °C 1032.4 hPa WSW 9.7 km/h 9.7 km/h 73 % 0.0 mm
13:57 15.2 °C 10.4 °C 1032.4 hPa WSW 11.1 km/h 11.1 km/h 73 % 0.0 mm
14:02 15.2 °C 10.2 °C 1032.4 hPa SW 11.1 km/h 11.1 km/h 72 % 0.0 mm
14:07 15.3 °C 10.1 °C 1032.4 hPa WSW 13.0 km/h 13.0 km/h 71 % 0.0 mm
14:08 15.3 °C 9.8 °C 1032.4 hPa WSW 13.0 km/h 13.0 km/h 70 % 0.0 mm
14:13 15.2 °C 9.6 °C 1032.1 hPa WSW 9.7 km/h 9.7 km/h 69 % 0.0 mm
14:15 15.2 °C 9.3 °C 1032.1 hPa WSW 9.3 km/h 9.3 km/h 68 % 0.0 mm
14:18 15.1 °C 8.8 °C 1032.1 hPa WSW 9.3 km/h 9.3 km/h 66 % 0.0 mm
14:22 15.3 °C 9.2 °C 1032.1 hPa SW 11.1 km/h 11.1 km/h 67 % 0.0 mm
14:24 15.4 °C 9.5 °C 1032.1 hPa SW 9.7 km/h 9.7 km/h 68 % 0.0 mm
14:27 15.5 °C 9.6 °C 1032.1 hPa WSW 11.1 km/h 11.1 km/h 68 % 0.0 mm
14:30 15.4 °C 9.3 °C 1032.1 hPa WSW 11.1 km/h 11.1 km/h 67 % 0.0 mm
14:34 15.4 °C 9.3 °C 1031.7 hPa WSW 9.3 km/h 9.3 km/h 67 % 0.0 mm
14:38 15.5 °C 8.9 °C 1031.7 hPa WSW 9.3 km/h 9.3 km/h 65 % 0.0 mm
14:40 15.6 °C 8.8 °C 1031.7 hPa WSW 8.0 km/h 8.0 km/h 64 % 0.0 mm
14:43 15.8 °C 8.7 °C 1031.7 hPa SW 9.7 km/h 10.0 km/h 63 % 0.0 mm
14:48 16.0 °C 9.4 °C 1031.7 hPa SW 9.3 km/h 9.3 km/h 65 % 0.0 mm
14:50 16.0 °C 9.2 °C 1031.7 hPa WSW 9.3 km/h 9.3 km/h 64 % 0.0 mm
14:51 16.0 °C 9.2 °C 1031.7 hPa WSW 7.4 km/h 7.4 km/h 64 % 0.0 mm
14:56 15.9 °C 8.7 °C 1031.4 hPa WSW 8.0 km/h 8.0 km/h 62 % 0.0 mm
14:59 15.9 °C 8.7 °C 1031.4 hPa WSW 7.4 km/h 7.4 km/h 62 % 0.0 mm
15:04 16.1 °C 9.5 °C 1031.7 hPa WSW 7.4 km/h 7.4 km/h 65 % 0.0 mm
15:06 16.1 °C 9.3 °C 1031.7 hPa SW 7.4 km/h 7.4 km/h 64 % 0.0 mm
15:11 16.1 °C 9.3 °C 1031.4 hPa WSW 9.7 km/h 9.7 km/h 64 % 0.0 mm
15:16 16.1 °C 9.9 °C 1031.0 hPa WSW 7.4 km/h 7.4 km/h 67 % 0.0 mm
15:19 15.9 °C 9.6 °C 1031.0 hPa WSW 8.0 km/h 8.0 km/h 66 % 0.0 mm
15:20 15.9 °C 9.6 °C 1031.0 hPa WSW 7.4 km/h 7.4 km/h 66 % 0.0 mm
15:25 15.9 °C 9.3 °C 1031.4 hPa SW 9.3 km/h 9.3 km/h 65 % 0.0 mm
15:26 15.9 °C 9.3 °C 1031.4 hPa SW 11.1 km/h 11.1 km/h 65 % 0.0 mm
15:31 15.9 °C 10.1 °C 1031.4 hPa SW 6.4 km/h 6.4 km/h 68 % 0.0 mm
15:36 15.8 °C 9.7 °C 1031.4 hPa SW 5.6 km/h 5.6 km/h 67 % 0.0 mm
15:37 15.8 °C 9.7 °C 1031.0 hPa SW 5.6 km/h 5.6 km/h 67 % 0.0 mm
15:42 15.8 °C 9.7 °C 1031.0 hPa SW 6.4 km/h 6.4 km/h 67 % 0.0 mm
15:43 15.8 °C 9.5 °C 1031.0 hPa SW 5.6 km/h 5.6 km/h 66 % 0.0 mm
15:48 15.9 °C 9.6 °C 1031.0 hPa SW 6.4 km/h 6.4 km/h 66 % 0.0 mm
15:53 15.9 °C 9.4 °C 1031.0 hPa SW 5.6 km/h 5.6 km/h 65 % 0.0 mm
15:58 16.1 °C 9.5 °C 1031.0 hPa SW 5.6 km/h 5.6 km/h 65 % 0.0 mm
15:59 16.1 °C 9.3 °C 1031.0 hPa SW 5.6 km/h 5.6 km/h 64 % 0.0 mm
16:04 16.3 °C 9.3 °C 1031.0 hPa SW 5.6 km/h 5.6 km/h 63 % 0.0 mm
16:05 16.4 °C 9.3 °C 1031.0 hPa SW 6.4 km/h 6.4 km/h 63 % 0.0 mm
16:07 16.5 °C 9.9 °C 1030.7 hPa SW 8.0 km/h 8.0 km/h 65 % 0.0 mm
16:12 16.6 °C 11.1 °C 1030.7 hPa SW 9.3 km/h 9.3 km/h 70 % 0.0 mm
16:13 16.6 °C 11.1 °C 1030.7 hPa SW 9.3 km/h 9.3 km/h 70 % 0.0 mm
16:15 16.6 °C 11.3 °C 1030.7 hPa SW 4.8 km/h 9.7 km/h 71 % 0.0 mm
16:20 16.4 °C 10.9 °C 1030.7 hPa SW 7.4 km/h 7.4 km/h 70 % 0.0 mm
16:21 16.4 °C 10.9 °C 1030.7 hPa SW 9.3 km/h 9.3 km/h 70 % 0.0 mm
16:22 16.4 °C 10.9 °C 1030.7 hPa SW 8.0 km/h 8.0 km/h 70 % 0.0 mm
16:27 16.3 °C 11.1 °C 1030.7 hPa SW 7.4 km/h 7.4 km/h 71 % 0.0 mm
16:28 16.3 °C 11.1 °C 1030.7 hPa SW 8.0 km/h 8.0 km/h 71 % 0.0 mm
16:33 16.3 °C 11.5 °C 1030.7 hPa SW 5.6 km/h 5.6 km/h 73 % 0.0 mm
16:37 16.3 °C 11.5 °C 1030.7 hPa SW 6.4 km/h 6.4 km/h 73 % 0.0 mm
16:41 16.1 °C 10.8 °C 1030.7 hPa WSW 7.4 km/h 7.4 km/h 71 % 0.0 mm
16:42 16.1 °C 10.8 °C 1030.7 hPa WSW 7.4 km/h 7.4 km/h 71 % 0.0 mm
16:46 16.1 °C 10.8 °C 1030.7 hPa WSW 5.6 km/h 5.6 km/h 71 % 0.0 mm
16:50 16.1 °C 10.2 °C 1030.7 hPa WSW 5.6 km/h 5.6 km/h 68 % 0.0 mm
16:52 16.1 °C 10.2 °C 1031.0 hPa WSW 5.6 km/h 5.6 km/h 68 % 0.0 mm
16:57 16.3 °C 10.1 °C 1031.0 hPa WSW 8.0 km/h 8.0 km/h 67 % 0.0 mm
17:00 16.3 °C 10.4 °C 1031.0 hPa WSW 5.6 km/h 5.6 km/h 68 % 0.0 mm
17:01 16.3 °C 10.4 °C 1031.0 hPa WSW 5.6 km/h 5.6 km/h 68 % 0.0 mm
17:05 16.4 °C 10.7 °C 1031.0 hPa WSW 7.4 km/h 7.4 km/h 69 % 0.0 mm
17:10 16.4 °C 10.9 °C 1031.0 hPa WSW 5.6 km/h 5.6 km/h 70 % 0.0 mm
17:11 16.4 °C 10.9 °C 1031.0 hPa WSW 5.6 km/h 5.6 km/h 70 % 0.0 mm
17:16 16.3 °C 10.8 °C 1031.0 hPa WSW 5.6 km/h 5.6 km/h 70 % 0.0 mm
17:17 16.3 °C 10.8 °C 1031.0 hPa WSW 5.6 km/h 5.6 km/h 70 % 0.0 mm
17:22 16.2 °C 10.9 °C 1031.0 hPa WSW 8.0 km/h 8.0 km/h 71 % 0.0 mm
17:23 16.2 °C 10.9 °C 1031.0 hPa WSW 7.4 km/h 7.4 km/h 71 % 0.0 mm
17:28 16.2 °C 10.9 °C 1031.4 hPa WSW 8.0 km/h 8.0 km/h 71 % 0.0 mm
17:29 16.1 °C 10.8 °C 1031.4 hPa WSW 7.4 km/h 7.4 km/h 71 % 0.0 mm
17:34 16.0 °C 10.3 °C 1031.4 hPa WSW 6.4 km/h 6.4 km/h 69 % 0.0 mm
17:36 16.0 °C 10.1 °C 1031.4 hPa WSW 5.6 km/h 5.6 km/h 68 % 0.0 mm
17:38 15.9 °C 9.8 °C 1031.4 hPa WSW 6.4 km/h 6.4 km/h 67 % 0.0 mm
17:43 15.9 °C 9.4 °C 1031.0 hPa WSW 6.4 km/h 6.4 km/h 65 % 0.0 mm
17:44 16.0 °C 9.7 °C 1031.0 hPa WSW 5.6 km/h 5.6 km/h 66 % 0.0 mm
17:49 16.2 °C 10.7 °C 1031.0 hPa WSW 6.4 km/h 6.4 km/h 70 % 0.0 mm
17:54 16.2 °C 10.9 °C 1031.0 hPa WSW 6.4 km/h 6.4 km/h 71 % 0.0 mm
17:58 16.1 °C 10.6 °C 1031.0 hPa WSW 7.4 km/h 7.4 km/h 70 % 0.0 mm
18:01 16.0 °C 10.6 °C 1031.0 hPa WSW 9.3 km/h 9.3 km/h 70 % 0.0 mm
18:04 15.9 °C 10.3 °C 1031.0 hPa WSW 8.0 km/h 8.0 km/h 69 % 0.0 mm
18:06 15.8 °C 9.9 °C 1031.0 hPa WSW 9.3 km/h 9.3 km/h 68 % 0.0 mm
18:11 15.7 °C 9.4 °C 1031.0 hPa WSW 13.0 km/h 13.0 km/h 66 % 0.0 mm
18:12 15.7 °C 9.2 °C 1031.0 hPa WSW 11.1 km/h 11.1 km/h 65 % 0.0 mm
18:17 15.7 °C 9.3 °C 1031.0 hPa West 5.6 km/h 5.6 km/h 66 % 0.0 mm
18:19 15.7 °C 9.3 °C 1031.0 hPa West 5.6 km/h 5.6 km/h 66 % 0.0 mm
18:22 15.6 °C 9.1 °C 1031.0 hPa Calm     65 % 0.0 mm
18:27 15.6 °C 9.9 °C 1031.4 hPa Calm     69 % 0.0 mm
18:28 15.6 °C 9.9 °C 1031.4 hPa Calm     69 % 0.0 mm
18:33 15.4 °C 9.9 °C 1031.0 hPa Calm     70 % 0.0 mm
18:36 15.3 °C 9.8 °C 1031.0 hPa Calm     70 % 0.0 mm
18:37 15.3 °C 9.8 °C 1031.4 hPa Calm     70 % 0.0 mm
18:42 15.2 °C 9.7 °C 1031.0 hPa NW 5.6 km/h 5.6 km/h 70 % 0.0 mm
18:44 15.1 °C 9.4 °C 1031.0 hPa NNW 5.6 km/h 5.6 km/h 69 % 0.0 mm
18:48 14.9 °C 9.1 °C 1031.0 hPa NNW 5.6 km/h 5.6 km/h 68 % 0.0 mm
18:49 14.9 °C 9.2 °C 1031.0 hPa NNW 5.6 km/h 5.6 km/h 69 % 0.0 mm
18:54 14.7 °C 8.6 °C 1031.0 hPa North 7.4 km/h 7.4 km/h 67 % 0.0 mm
18:55 14.7 °C 8.6 °C 1031.0 hPa North 7.4 km/h 7.4 km/h 67 % 0.0 mm
19:00 14.5 °C 8.2 °C 1031.4 hPa North 5.6 km/h 5.6 km/h 66 % 0.0 mm
19:04 14.4 °C 8.1 °C 1031.4 hPa North 5.6 km/h 5.6 km/h 66 % 0.0 mm
19:05 14.4 °C 8.3 °C 1031.4 hPa North 5.6 km/h 5.6 km/h 67 % 0.0 mm
19:10 14.4 °C 8.4 °C 1031.0 hPa Calm     67 % 0.0 mm
19:11 14.4 °C 8.4 °C 1031.0 hPa Calm     67 % 0.0 mm
19:16 14.3 °C 8.5 °C 1031.0 hPa Calm     68 % 0.0 mm
19:19 14.3 °C 8.4 °C 1031.4 hPa Calm     68 % 0.0 mm
19:23 14.2 °C 8.3 °C 1031.0 hPa North 5.6 km/h 5.6 km/h 68 % 0.0 mm
19:26 14.0 °C 8.2 °C 1031.0 hPa North 8.0 km/h 8.0 km/h 68 % 0.0 mm
19:31 13.8 °C 7.8 °C 1031.4 hPa North 8.0 km/h 8.0 km/h 67 % 0.0 mm
19:32 13.7 °C 7.7 °C 1031.4 hPa North 9.3 km/h 9.3 km/h 67 % 0.0 mm
19:34 13.7 °C 7.7 °C 1031.4 hPa North 9.7 km/h 9.7 km/h 67 % 0.0 mm
19:38 13.6 °C 7.4 °C 1031.7 hPa North 9.3 km/h 9.3 km/h 66 % 0.0 mm
19:43 13.6 °C 7.3 °C 1031.7 hPa North 7.4 km/h 7.6 km/h 66 % 0.0 mm
19:48 13.5 °C 6.8 °C 1031.4 hPa NNW 5.6 km/h 5.6 km/h 64 % 0.0 mm
19:49 13.5 °C 6.8 °C 1031.4 hPa NNW 6.4 km/h 6.4 km/h 64 % 0.0 mm
19:50 13.5 °C 6.8 °C 1031.4 hPa NNW 5.6 km/h 5.6 km/h 64 % 0.0 mm
19:55 13.7 °C 6.7 °C 1031.4 hPa North 7.4 km/h 7.4 km/h 63 % 0.0 mm
19:57 13.7 °C 7.1 °C 1031.4 hPa North 7.4 km/h 7.4 km/h 64 % 0.0 mm
20:02 13.7 °C 6.5 °C 1031.4 hPa North 7.4 km/h 7.4 km/h 62 % 0.0 mm
20:04 13.7 °C 6.5 °C 1031.4 hPa NNW 7.4 km/h 7.4 km/h 62 % 0.0 mm
20:09 13.6 °C 5.0 °C 1031.7 hPa NNW 11.3 km/h 11.3 km/h 56 % 0.0 mm
20:14 13.9 °C 4.7 °C 1031.7 hPa NNW 12.9 km/h 12.9 km/h 54 % 0.0 mm
20:15 13.9 °C 4.4 °C 1031.7 hPa NNW 13.0 km/h 13.0 km/h 53 % 0.0 mm
20:20 13.8 °C 4.1 °C 1031.7 hPa North 13.0 km/h 13.0 km/h 52 % 0.0 mm
20:22 13.8 °C 3.5 °C 1031.7 hPa North 16.7 km/h 16.7 km/h 50 % 0.0 mm
20:25 13.8 °C 3.3 °C 1031.7 hPa NNW 13.0 km/h 13.0 km/h 49 % 0.0 mm
20:28 13.8 °C 3.3 °C 1031.7 hPa North 13.0 km/h 13.0 km/h 49 % 0.0 mm
20:30 13.8 °C 3.3 °C 1031.7 hPa North 11.1 km/h 11.1 km/h 49 % 0.0 mm
20:35 13.8 °C 2.9 °C 1032.1 hPa North 11.3 km/h 11.3 km/h 48 % 0.0 mm
20:36 13.8 °C 2.9 °C 1031.7 hPa North 11.1 km/h 11.1 km/h 48 % 0.0 mm
20:41 13.7 °C 2.9 °C 1032.1 hPa North 11.1 km/h 11.1 km/h 48 % 0.0 mm
20:45 13.7 °C 3.4 °C 1032.1 hPa ENE 9.3 km/h 9.3 km/h 50 % 0.0 mm
20:46 13.6 °C 3.6 °C 1032.1 hPa NE 7.4 km/h 7.4 km/h 51 % 0.0 mm
20:51 13.3 °C 3.6 °C 1032.1 hPa NNE 7.4 km/h 7.4 km/h 52 % 0.0 mm
20:52 13.3 °C 3.3 °C 1032.1 hPa NNE 7.4 km/h 7.4 km/h 51 % 0.0 mm
20:57 13.1 °C 3.2 °C 1032.1 hPa North 5.6 km/h 5.6 km/h 51 % 0.0 mm
20:58 13.1 °C 3.2 °C 1032.1 hPa North 5.6 km/h 5.6 km/h 51 % 0.0 mm
21:03 13.0 °C 2.8 °C 1032.4 hPa North 8.0 km/h 8.0 km/h 50 % 0.0 mm
21:05 13.0 °C 2.8 °C 1032.4 hPa North 9.3 km/h 9.3 km/h 50 % 0.0 mm
21:10 13.1 °C 3.2 °C 1032.4 hPa North 5.6 km/h 5.6 km/h 51 % 0.0 mm
21:15 13.3 °C 3.9 °C 1032.4 hPa North 5.6 km/h 5.6 km/h 53 % 0.0 mm
21:16 13.3 °C 3.9 °C 1032.4 hPa North 6.4 km/h 6.4 km/h 53 % 0.0 mm
21:21 13.4 °C 2.9 °C 1032.4 hPa North 7.4 km/h 7.4 km/h 49 % 0.0 mm
21:23 13.4 °C 3.2 °C 1032.4 hPa North 5.6 km/h 5.6 km/h 50 % 0.0 mm
21:26 13.4 °C 2.7 °C 1032.4 hPa North 11.1 km/h 11.1 km/h 48 % 0.0 mm
21:31 13.5 °C 2.1 °C 1032.4 hPa NNE 7.4 km/h 7.4 km/h 46 % 0.0 mm
21:33 13.5 °C 1.8 °C 1032.4 hPa North 6.4 km/h 6.4 km/h 45 % 0.0 mm
21:38 13.4 °C 1.7 °C 1032.4 hPa NNE 5.6 km/h 5.6 km/h 45 % 0.0 mm
21:43 13.3 °C 1.6 °C 1032.4 hPa North 8.0 km/h 8.0 km/h 45 % 0.0 mm
21:44 13.3 °C 1.6 °C 1032.4 hPa North 7.4 km/h 7.4 km/h 45 % 0.0 mm
21:49 13.2 °C 1.2 °C 1032.4 hPa North 3.7 km/h 3.7 km/h 44 % 0.0 mm
21:54 13.2 °C 0.2 °C 1032.1 hPa NNW 5.6 km/h 5.6 km/h 41 % 0.0 mm
21:55 13.3 °C 0.3 °C 1032.1 hPa NNW 5.6 km/h 5.6 km/h 41 % 0.0 mm
22:00 13.6 °C -0.2 °C 1032.1 hPa North 11.1 km/h 11.1 km/h 39 % 0.0 mm
22:04 13.7 °C -0.7 °C 1032.1 hPa NNW 7.4 km/h 7.4 km/h 37 % 0.0 mm
22:05 13.8 °C -0.7 °C 1032.4 hPa NNW 7.4 km/h 7.4 km/h 37 % 0.0 mm
22:10 14.0 °C -1.6 °C 1032.4 hPa NNW 11.1 km/h 11.1 km/h 34 % 0.0 mm
22:15 14.2 °C -1.9 °C 1032.4 hPa NNW 9.3 km/h 9.3 km/h 33 % 0.0 mm
22:20 14.3 °C -2.2 °C 1032.4 hPa North 4.8 km/h 11.3 km/h 32 % 0.0 mm
22:23 14.4 °C -2.1 °C 1032.4 hPa North 5.6 km/h 5.6 km/h 32 % 0.0 mm
22:26 14.4 °C -2.1 °C 1032.4 hPa North 5.6 km/h 5.6 km/h 32 % 0.0 mm
22:31 14.3 °C -0.2 °C 1032.4 hPa North 3.7 km/h 3.7 km/h 37 % 0.0 mm
22:32 14.4 °C 0.9 °C 1032.4 hPa North 3.7 km/h 3.7 km/h 40 % 0.0 mm
22:34 14.4 °C 2.3 °C 1032.4 hPa NNW 5.6 km/h 5.6 km/h 44 % 0.0 mm
22:37 14.3 °C 3.4 °C 1032.4 hPa NNW 3.2 km/h 3.2 km/h 48 % 0.0 mm
22:42 14.3 °C 4.3 °C 1032.4 hPa NNW 1.9 km/h 1.9 km/h 51 % 0.0 mm
22:43 14.3 °C 3.7 °C 1032.4 hPa NNW 1.9 km/h 1.9 km/h 49 % 0.0 mm
22:48 14.1 °C 2.3 °C 1032.4 hPa NNW 1.9 km/h 1.9 km/h 45 % 0.0 mm
22:51 14.0 °C -0.1 °C 1032.1 hPa NNW 4.8 km/h 4.8 km/h 38 % 0.0 mm
22:56 13.9 °C -0.2 °C 1032.4 hPa NNE 5.6 km/h 5.6 km/h 38 % 0.0 mm
23:01 13.7 °C -0.3 °C 1032.4 hPa North 5.6 km/h 5.6 km/h 38 % 0.0 mm
23:05 13.7 °C -0.3 °C 1032.4 hPa NNW 7.4 km/h 7.4 km/h 38 % 0.0 mm
23:07 13.7 °C -0.3 °C 1032.4 hPa NNW 5.6 km/h 5.6 km/h 38 % 0.0 mm
23:12 13.8 °C -0.3 °C 1032.4 hPa NNW 5.6 km/h 5.6 km/h 38 % 0.0 mm
23:14 13.8 °C -0.3 °C 1032.4 hPa NNW 5.6 km/h 5.6 km/h 38 % 0.0 mm
23:18 13.8 °C 0.4 °C 1032.4 hPa NNW 3.7 km/h 3.7 km/h 40 % 0.0 mm
23:21 13.8 °C -0.3 °C 1032.4 hPa NNW 1.9 km/h 1.9 km/h 38 % 0.0 mm
23:25 13.8 °C 0.1 °C 1032.4 hPa NNW 3.7 km/h 3.7 km/h 39 % 0.0 mm
23:30 14.0 °C -0.5 °C 1032.4 hPa NNW 3.7 km/h 3.7 km/h 37 % 0.0 mm
23:31 14.1 °C -0.4 °C 1032.4 hPa NNW 3.7 km/h 3.7 km/h 37 % 0.0 mm
23:36 14.3 °C -0.6 °C 1032.4 hPa NNW 5.6 km/h 5.6 km/h 36 % 0.0 mm
23:39 14.4 °C 0.3 °C 1032.4 hPa Calm     38 % 0.0 mm
23:44 14.3 °C 2.2 °C 1032.4 hPa NNW 5.6 km/h 5.6 km/h 44 % 0.0 mm
23:49 14.2 °C 4.4 °C 1032.7 hPa NNW 3.7 km/h 3.7 km/h 52 % 0.0 mm
23:50 14.2 °C 4.4 °C 1032.7 hPa NNW 3.7 km/h 3.7 km/h 52 % 0.0 mm
23:54 13.9 °C 3.1 °C 1032.7 hPa Calm     48 % 0.0 mm
23:55 13.9 °C 3.1 °C 1032.7 hPa Calm     48 % 0.0 mm
Puerto Banus, Marbella
Elogios de Weather Underground - 2 mb

Guión original por  Jim McMurry - jmcmurry@mwt.net Adaptado para la plantilla por  Wim van der Kuil - Leuven-Template.eu

Usted encontrará nuestra información del tiempo también en:

Weather Underground

Iberian Peninsula Weather Network